Time;durP1;ratioP1;P1;durP2;ratioP2;P2;SDS_P1;SDS_P2;PMS_P1;PMS_P2;Temp;Humidity;BMP_temperature;BMP_pressure;BME280_temperature;BME280_humidity;BME280_pressure;Samples;Min_cycle;Max_cycle;Signal;HPM_P1;HPM_P2
2021/01/29 00:02:47;;;;;;;15.57;7.10;;;-0.70;98.20;;;;;;7914976;29;20327;-71
2021/01/29 00:06:50;;;;;;;15.93;6.95;;;1.10;98.60;;;;;;7922291;29;20051;-72
2021/01/29 00:10:53;;;;;;;12.60;6.38;;;-0.80;98.10;;;;;;7890732;29;20557;-72
2021/01/29 00:14:55;;;;;;;14.18;6.40;;;-0.80;98.20;;;;;;7913203;29;20108;-72
2021/01/29 00:18:56;;;;;;;12.02;6.75;;;-0.90;98.20;;;;;;7898840;29;20128;-71
2021/01/29 00:22:58;;;;;;;9.35;5.18;;;-0.90;98.20;;;;;;7901466;29;20065;-73
2021/01/29 00:27:00;;;;;;;8.93;5.00;;;-0.90;98.20;;;;;;7948079;29;20063;-71
2021/01/29 00:31:02;;;;;;;7.95;4.35;;;-1.00;98.30;;;;;;7924612;29;20186;-70
2021/01/29 00:35:07;;;;;;;6.65;4.10;;;-0.90;98.40;;;;;;7903289;29;20612;-71
2021/01/29 00:39:09;;;;;;;10.02;3.58;;;-0.90;98.30;;;;;;7915082;29;20051;-71
2021/01/29 00:43:10;;;;;;;7.97;3.63;;;-0.90;98.20;;;;;;7915708;29;20051;-71
2021/01/29 00:47:12;;;;;;;9.13;3.42;;;-0.90;98.20;;;;;;7923136;29;20621;-71
2021/01/29 00:51:14;;;;;;;7.85;3.70;;;-0.90;97.80;;;;;;7923914;29;20514;-72
2021/01/29 00:55:17;;;;;;;7.80;3.17;;;-0.90;97.90;;;;;;7906239;29;20078;-72
2021/01/29 00:59:28;;;;;;;;;;;-0.90;98.10;;;;;;7925037;29;20074;-71
2021/01/29 01:03:52;;;;;;;8.32;3.30;;;-0.90;97.90;;;;;;7936668;29;19946;-71
2021/01/29 01:07:57;;;;;;;9.18;3.58;;;-0.90;98.00;;;;;;7926234;29;20057;-72
2021/01/29 01:12:18;;;;;;;7.70;3.83;;;-0.90;97.90;;;;;;7913929;29;20530;-73
2021/01/29 01:16:40;;;;;;;10.07;3.60;;;0.10;98.00;;;;;;7924531;29;20058;-75
2021/01/29 01:20:52;;;;;;;7.60;3.58;;;-1.00;98.10;;;;;;7916342;29;20143;-71
2021/01/29 01:24:55;;;;;;;8.73;3.28;;;-1.00;97.90;;;;;;7916602;29;20055;-73
2021/01/29 01:28:58;;;;;;;6.45;2.92;;;-1.00;97.90;;;;;;7905773;29;20101;-73
2021/01/29 01:32:59;;;;;;;7.07;3.25;;;-1.00;97.80;;;;;;7907223;29;20056;-74
2021/01/29 01:37:33;;;;;;;6.43;2.75;;;-1.00;97.90;;;;;;7922395;29;20414;-73
2021/01/29 01:41:56;;;;;;;4.43;2.45;;;-1.00;97.60;;;;;;7903321;29;20054;-73
2021/01/29 01:46:16;;;;;;;8.23;2.55;;;-1.00;97.60;;;;;;7915075;29;20478;-71
2021/01/29 01:50:48;;;;;;;5.40;2.45;;;-1.00;97.80;;;;;;7937355;29;20137;-73
2021/01/29 01:55:03;;;;;;;8.43;2.80;;;-1.00;97.70;;;;;;7930010;29;20051;-71
2021/01/29 01:59:19;;;;;;;8.18;2.53;;;-1.00;97.40;;;;;;7911181;29;20556;-72
2021/01/29 02:03:39;;;;;;;14.82;3.17;;;-1.00;97.60;;;;;;7947690;29;20120;-74
2021/01/29 02:08:13;;;;;;;5.45;1.73;;;-1.00;97.70;;;;;;7927667;29;20062;-71
2021/01/29 02:12:53;;;;;;;5.43;1.70;;;-1.00;97.80;;;;;;7924598;29;20548;-72
2021/01/29 02:17:09;;;;;;;5.28;1.35;;;-1.00;97.80;;;;;;7932245;29;20626;-72
2021/01/29 02:22:14;;;;;;;2.65;0.90;;;-0.90;97.90;;;;;;7916389;29;20067;-72
2021/01/29 02:26:56;;;;;;;6.82;1.75;;;-0.80;97.60;;;;;;7932193;29;20062;-72
2021/01/29 02:31:02;;;;;;;3.42;1.20;;;-0.80;97.30;;;;;;7943996;29;20737;-72
2021/01/29 02:35:41;;;;;;;10.40;1.83;;;-0.80;97.50;;;;;;7908046;29;20050;-71
2021/01/29 02:40:08;;;;;;;6.53;1.23;;;-0.80;97.60;;;;;;7941135;29;20069;-72
2021/01/29 02:44:26;;;;;;;9.53;1.53;;;-0.80;97.70;;;;;;7898009;29;20058;-72
2021/01/29 02:49:00;;;;;;;3.30;1.20;;;-0.70;97.70;;;;;;7927273;29;21083;-71
2021/01/29 02:53:59;;;;;;;3.65;1.27;;;-0.70;97.60;;;;;;7867721;30;20059;-75
2021/01/29 02:58:35;;;;;;;4.50;1.15;;;-0.70;97.70;;;;;;7885889;29;20043;-74
2021/01/29 03:03:12;;;;;;;4.40;1.70;;;-0.70;97.60;;;;;;7917255;29;20078;-72
2021/01/29 03:08:00;;;;;;;3.03;1.10;;;-0.60;97.60;;;;;;7921394;29;20061;-73
2021/01/29 03:12:37;;;;;;;7.00;1.42;;;-0.60;97.40;;;;;;7913245;29;20142;-73
2021/01/29 03:17:05;;;;;;;3.78;1.30;;;-0.60;97.70;;;;;;7918866;29;20113;-72
2021/01/29 03:21:32;;;;;;;4.50;1.20;;;-0.60;97.60;;;;;;7928040;29;20066;-73
2021/01/29 03:25:58;;;;;;;5.82;1.30;;;-0.60;97.80;;;;;;7925174;29;20120;-75
2021/01/29 03:30:29;;;;;;;4.55;1.05;;;-0.60;97.10;;;;;;7930091;29;20050;-73
2021/01/29 03:35:13;;;;;;;2.55;0.90;;;-0.60;97.50;;;;;;7928807;29;20105;-73
2021/01/29 03:39:37;;;;;;;1.10;0.38;;;-0.60;97.40;;;;;;7914518;29;20107;-71
2021/01/29 03:44:16;;;;;;;4.80;1.15;;;-1.70;97.10;;;;;;7912655;29;20645;-72
2021/01/29 03:48:50;;;;;;;1.08;0.50;;;-0.50;97.50;;;;;;7911744;29;20758;-72
2021/01/29 03:53:44;;;;;;;3.58;0.90;;;-0.50;97.30;;;;;;7917882;29;20604;-71
2021/01/29 03:58:15;;;;;;;3.17;0.98;;;-0.50;97.50;;;;;;7911320;29;20393;-71
2021/01/29 04:03:09;;;;;;;6.57;1.00;;;-0.50;97.40;;;;;;7934548;29;20069;-72
2021/01/29 04:07:41;;;;;;;3.33;0.70;;;-0.50;97.50;;;;;;7903511;29;20775;-72
2021/01/29 04:12:04;;;;;;;3.47;1.10;;;-0.50;97.30;;;;;;7928741;29;20436;-74
2021/01/29 04:16:41;;;;;;;4.93;0.93;;;-0.50;97.40;;;;;;7927985;29;20147;-72
2021/01/29 04:20:59;;;;;;;6.10;1.10;;;-0.50;97.70;;;;;;7899466;29;20062;-73
2021/01/29 04:25:17;;;;;;;7.70;1.50;;;-0.50;97.60;;;;;;7923704;29;20105;-73
2021/01/29 04:29:29;;;;;;;16.08;1.30;;;-0.40;97.60;;;;;;7925149;29;20058;-74
2021/01/29 04:33:41;;;;;;;4.95;1.10;;;-0.40;97.40;;;;;;7913825;29;20087;-73
2021/01/29 04:38:02;;;;;;;7.45;1.02;;;-0.40;97.40;;;;;;7925377;29;20058;-72
2021/01/29 04:42:25;;;;;;;12.32;0.90;;;-0.40;97.70;;;;;;7929113;29;20409;-72
2021/01/29 04:46:45;;;;;;;2.47;0.75;;;-0.40;97.60;;;;;;7916460;29;20446;-72
2021/01/29 04:51:25;;;;;;;4.05;1.00;;;-0.40;97.70;;;;;;7925938;29;20059;-73
2021/01/29 04:55:53;;;;;;;2.78;0.68;;;-0.40;97.60;;;;;;7928720;29;20133;-72
2021/01/29 05:00:03;;;;;;;5.70;1.63;;;-0.30;97.80;;;;;;7924507;29;20063;-73
2021/01/29 05:04:38;;;;;;;2.25;0.75;;;-0.30;97.60;;;;;;7925403;29;20138;-72
2021/01/29 05:09:44;;;;;;;1.30;0.52;;;-0.30;97.70;;;;;;7886285;29;20142;-71
2021/01/29 05:14:28;;;;;;;5.55;1.10;;;-0.30;97.80;;;;;;7921247;29;20126;-72
2021/01/29 05:18:48;;;;;;;6.22;1.40;;;1.80;98.40;;;;;;7932306;29;20075;-71
2021/01/29 05:22:50;;;;;;;4.03;1.30;;;-0.30;98.00;;;;;;7928760;29;20137;-71
2021/01/29 05:27:06;;;;;;;6.32;1.13;;;-0.30;98.00;;;;;;7916901;29;20044;-72
2021/01/29 05:31:27;;;;;;;2.00;0.98;;;-0.20;97.80;;;;;;7917537;29;20116;-72
2021/01/29 05:35:54;;;;;;;2.78;0.70;;;1.90;98.60;;;;;;7917798;29;20058;-72
2021/01/29 05:40:12;;;;;;;6.40;1.50;;;-0.20;98.20;;;;;;7917344;29;20449;-72
2021/01/29 05:44:39;;;;;;;5.15;1.02;;;-0.20;98.00;;;;;;7912412;29;20063;-72
2021/01/29 05:48:50;;;;;;;6.32;1.35;;;-0.20;98.00;;;;;;7909609;29;20071;-72
2021/01/29 05:53:26;;;;;;;4.47;1.42;;;-0.10;97.90;;;;;;7925113;29;20043;-73
2021/01/29 05:57:55;;;;;;;6.00;1.30;;;-0.20;96.60;;;;;;7918774;29;20069;-71
2021/01/29 06:02:09;;;;;;;5.45;1.67;;;-0.10;97.20;;;;;;7927491;29;20138;-73
2021/01/29 06:06:44;;;;;;;7.93;0.90;;;-0.10;96.80;;;;;;7947539;29;20451;-72
2021/01/29 06:11:05;;;;;;;3.63;0.85;;;-0.10;95.70;;;;;;7928253;29;20145;-72
2021/01/29 06:15:32;;;;;;;1.58;0.40;;;-0.10;96.40;;;;;;7914505;29;20054;-72
2021/01/29 06:20:10;;;;;;;4.25;0.68;;;-0.10;95.00;;;;;;7938147;29;20047;-71
2021/01/29 06:24:29;;;;;;;1.85;0.50;;;-0.10;95.30;;;;;;7927043;29;20067;-73
2021/01/29 06:29:04;;;;;;;2.65;0.55;;;-0.10;94.40;;;;;;7941760;29;20055;-69
2021/01/29 06:33:24;;;;;;;2.13;0.77;;;0.00;95.10;;;;;;7932058;29;20055;-69
2021/01/29 06:37:53;;;;;;;2.03;0.50;;;0.00;94.10;;;;;;7951546;29;20272;-70
2021/01/29 06:42:14;;;;;;;3.72;1.10;;;0.00;94.90;;;;;;7932762;29;20072;-71
2021/01/29 06:46:49;;;;;;;3.10;0.73;;;0.00;94.90;;;;;;7925712;29;20120;-71
2021/01/29 06:51:20;;;;;;;1.02;0.60;;;0.00;94.50;;;;;;7925817;29;20059;-71
2021/01/29 06:55:39;;;;;;;1.67;0.90;;;0.00;94.90;;;;;;7906688;29;20066;-70
2021/01/29 06:59:52;;;;;;;3.28;0.75;;;0.00;95.30;;;;;;7938776;29;20158;-71
2021/01/29 07:04:18;;;;;;;3.00;0.65;;;0.00;94.40;;;;;;7924315;29;20400;-70
2021/01/29 07:08:31;;;;;;;4.13;0.68;;;0.00;94.20;;;;;;7934586;29;20399;-71
2021/01/29 07:13:09;;;;;;;5.85;1.60;;;0.00;94.10;;;;;;7923599;29;20055;-71
2021/01/29 07:17:28;;;;;;;5.88;0.85;;;0.00;94.40;;;;;;7904573;29;20073;-71
2021/01/29 07:22:10;;;;;;;2.08;0.52;;;0.00;94.90;;;;;;7908824;29;20047;-70
2021/01/29 07:26:14;;;;;;;2.93;0.87;;;-0.30;94.40;;;;;;7913755;29;20559;-70
2021/01/29 07:30:26;;;;;;;4.40;1.10;;;0.10;93.00;;;;;;7913678;29;20043;-71
2021/01/29 07:34:34;;;;;;;2.97;1.10;;;0.10;94.60;;;;;;7903283;29;20055;-71
2021/01/29 07:39:12;;;;;;;1.92;0.88;;;0.10;95.10;;;;;;7901371;29;20050;-71
2021/01/29 07:43:13;;;;;;;4.93;1.10;;;0.10;94.60;;;;;;7922272;29;20055;-71
2021/01/29 07:47:22;;;;;;;4.10;1.97;;;0.90;93.70;;;;;;7907962;29;20066;-70
2021/01/29 07:51:47;;;;;;;3.10;1.08;;;0.10;94.30;;;;;;7931580;29;21574;-71
2021/01/29 07:56:31;;;;;;;6.93;1.35;;;0.00;95.00;;;;;;7912046;29;20066;-71
2021/01/29 08:01:08;;;;;;;1.95;0.70;;;0.10;94.70;;;;;;7921125;29;20050;-71
2021/01/29 08:05:18;;;;;;;3.95;1.23;;;0.90;94.30;;;;;;7946530;29;20082;-71
2021/01/29 08:09:25;;;;;;;1.70;0.65;;;0.10;94.70;;;;;;7904717;29;20055;-71
2021/01/29 08:13:46;;;;;;;3.67;0.98;;;0.10;94.70;;;;;;7904246;29;20542;-71
2021/01/29 08:17:58;;;;;;;2.30;0.98;;;0.10;94.40;;;;;;7921192;29;20051;-71
2021/01/29 08:22:34;;;;;;;7.00;1.00;;;0.10;93.00;;;;;;7906718;29;20478;-71
2021/01/29 08:26:49;;;;;;;2.28;0.70;;;0.10;94.00;;;;;;7924948;29;20073;-69
2021/01/29 08:31:05;;;;;;;2.72;0.98;;;0.10;94.00;;;;;;7930197;29;20349;-70
2021/01/29 08:36:06;;;;;;;2.42;0.77;;;0.10;92.70;;;;;;7872737;29;20523;-70
2021/01/29 08:40:15;;;;;;;1.55;0.70;;;0.10;93.80;;;;;;7919901;29;20093;-71
2021/01/29 08:44:32;;;;;;;2.40;0.70;;;0.10;93.20;;;;;;7920804;29;20113;-70
2021/01/29 08:49:08;;;;;;;2.08;0.60;;;0.10;93.20;;;;;;7908127;29;20073;-70
2021/01/29 08:53:10;;;;;;;4.07;0.95;;;0.20;93.90;;;;;;7908237;29;20498;-70
2021/01/29 08:57:20;;;;;;;3.85;0.80;;;0.20;93.40;;;;;;7924033;29;20055;-70
2021/01/29 09:01:28;;;;;;;0.32;0.30;;;0.20;93.90;;;;;;7914138;29;20048;-70
2021/01/29 09:05:32;;;;;;;2.17;0.60;;;0.20;91.60;;;;;;7909674;29;20066;-70
2021/01/29 09:09:37;;;;;;;3.70;1.48;;;0.20;91.30;;;;;;7910848;29;20066;-71
2021/01/29 09:13:40;;;;;;;3.95;0.98;;;0.10;93.00;;;;;;7917011;29;20145;-71
2021/01/29 09:17:52;;;;;;;5.70;1.08;;;0.20;92.50;;;;;;7926062;29;20065;-72
2021/01/29 09:21:59;;;;;;;2.25;0.98;;;0.20;93.00;;;;;;7909288;29;20063;-72
2021/01/29 09:26:15;;;;;;;5.45;0.80;;;0.20;92.10;;;;;;7907543;29;20055;-71
2021/01/29 09:30:22;;;;;;;2.50;0.68;;;0.20;92.60;;;;;;7915432;29;20047;-71
2021/01/29 09:34:40;;;;;;;3.58;1.00;;;0.20;91.20;;;;;;7930030;29;20050;-72
2021/01/29 09:38:50;;;;;;;0.60;0.40;;;0.20;92.80;;;;;;7933147;29;20059;-73
2021/01/29 09:43:09;;;;;;;2.85;0.70;;;0.40;91.60;;;;;;7931832;29;20051;-72
2021/01/29 09:47:17;;;;;;;3.80;1.38;;;0.70;93.00;;;;;;7940626;29;20047;-72
2021/01/29 09:51:52;;;;;;;8.15;1.17;;;0.20;93.00;;;;;;7932901;29;20488;-73
2021/01/29 09:55:56;;;;;;;4.88;1.23;;;0.30;93.10;;;;;;7897912;29;20521;-73
2021/01/29 10:00:09;;;;;;;3.97;1.27;;;0.40;93.10;;;;;;7928178;29;20051;-71
2021/01/29 10:04:51;;;;;;;4.50;1.25;;;0.40;93.50;;;;;;7932177;29;20058;-74
2021/01/29 10:08:58;;;;;;;4.38;0.93;;;0.40;92.90;;;;;;7922679;29;20123;-73
2021/01/29 10:13:25;;;;;;;6.95;1.00;;;0.40;91.90;;;;;;7919447;29;20097;-76
2021/01/29 10:17:33;;;;;;;3.20;0.90;;;0.40;93.20;;;;;;7911478;29;20138;-74
2021/01/29 10:21:47;;;;;;;4.25;1.15;;;0.40;92.00;;;;;;7913437;29;21045;-73
2021/01/29 10:26:21;;;;;;;1.20;0.52;;;0.40;91.70;;;;;;7942822;29;20062;-74
2021/01/29 10:30:41;;;;;;;2.75;1.10;;;0.40;89.60;;;;;;7928868;29;20128;-73
2021/01/29 10:35:21;;;;;;;3.33;1.10;;;0.40;91.20;;;;;;7920815;29;20058;-74
2021/01/29 10:39:23;;;;;;;2.85;1.20;;;0.30;91.70;;;;;;7895759;29;20058;-73
2021/01/29 10:43:45;;;;;;;4.10;1.00;;;0.40;92.00;;;;;;7924788;29;20541;-74
2021/01/29 10:48:01;;;;;;;3.10;1.20;;;0.40;90.40;;;;;;7923974;29;20466;-73
2021/01/29 10:52:22;;;;;;;6.28;1.30;;;2.50;93.20;;;;;;7935595;29;20043;-74
2021/01/29 10:56:28;;;;;;;2.33;1.10;;;0.50;92.90;;;;;;7904041;29;20104;-74
2021/01/29 11:00:33;;;;;;;1.02;0.80;;;0.50;92.30;;;;;;7915677;29;20069;-74
2021/01/29 11:04:45;;;;;;;1.55;0.73;;;0.50;91.10;;;;;;7921301;29;20119;-74
2021/01/29 11:08:51;;;;;;;2.42;1.00;;;0.50;92.50;;;;;;7925921;29;20058;-73
2021/01/29 11:13:16;;;;;;;3.10;1.33;;;0.50;92.60;;;;;;7921030;29;20423;-73
2021/01/29 11:17:35;;;;;;;1.67;0.90;;;0.50;91.70;;;;;;7924250;29;20089;-73
2021/01/29 11:22:02;;;;;;;1.50;0.70;;;0.50;91.60;;;;;;7920544;29;20562;-73
2021/01/29 11:26:23;;;;;;;3.30;1.10;;;0.50;89.50;;;;;;7928199;29;20529;-73
2021/01/29 11:30:51;;;;;;;3.83;1.00;;;0.50;91.00;;;;;;7912226;29;20071;-74
2021/01/29 11:35:24;;;;;;;1.65;0.68;;;0.40;90.10;;;;;;7920590;29;20062;-74
2021/01/29 11:39:45;;;;;;;4.05;0.90;;;0.40;86.90;;;;;;7941283;29;20536;-73
2021/01/29 11:44:06;;;;;;;1.25;0.70;;;0.40;90.50;;;;;;7928652;29;20062;-74
2021/01/29 11:48:21;;;;;;;2.47;1.05;;;0.40;89.20;;;;;;7910852;29;20460;-73
2021/01/29 11:52:46;;;;;;;2.78;0.90;;;2.90;92.00;;;;;;7912065;29;20527;-73
2021/01/29 11:57:15;;;;;;;5.13;1.17;;;0.40;90.20;;;;;;7906587;29;20568;-74
2021/01/29 12:01:30;;;;;;;2.08;0.77;;;0.50;91.30;;;;;;7918346;29;20101;-73
2021/01/29 12:06:13;;;;;;;2.80;1.00;;;0.40;89.10;;;;;;7919970;29;20073;-73
2021/01/29 12:10:47;;;;;;;2.05;0.80;;;0.50;91.30;;;;;;7922269;29;20123;-73
2021/01/29 12:15:21;;;;;;;2.33;1.38;;;0.50;91.50;;;;;;7931308;29;20126;-74
2021/01/29 12:19:33;;;;;;;5.32;1.23;;;0.50;87.10;;;;;;7904085;29;20767;-73
2021/01/29 12:24:02;;;;;;;2.72;1.05;;;0.50;90.90;;;;;;7917408;29;20081;-73
2021/01/29 12:28:12;;;;;;;0.98;0.60;;;0.50;91.40;;;;;;7875255;29;20063;-73
2021/01/29 12:32:26;;;;;;;4.40;1.10;;;0.60;90.60;;;;;;7914292;29;20749;-74
2021/01/29 12:36:31;;;;;;;2.92;0.82;;;0.60;90.80;;;;;;7936991;29;20146;-73
2021/01/29 12:40:43;;;;;;;2.83;0.90;;;0.60;90.80;;;;;;7903933;29;20054;-73
2021/01/29 12:45:21;;;;;;;2.90;0.75;;;0.60;91.50;;;;;;7908395;29;20058;-73
2021/01/29 12:49:44;;;;;;;4.68;0.82;;;0.50;88.50;;;;;;7894091;29;20054;-73
2021/01/29 12:53:49;;;;;;;3.42;1.10;;;0.50;91.50;;;;;;7915055;29;20067;-73
2021/01/29 12:58:03;;;;;;;1.13;0.50;;;0.60;91.70;;;;;;7913190;29;20141;-73
2021/01/29 13:02:23;;;;;;;1.48;0.70;;;0.60;90.40;;;;;;7920214;29;20412;-73
2021/01/29 13:06:54;;;;;;;2.78;0.70;;;0.60;90.50;;;;;;7917219;29;20093;-73
2021/01/29 13:11:07;;;;;;;3.90;1.00;;;0.60;91.50;;;;;;7924163;29;20058;-73
2021/01/29 13:15:38;;;;;;;1.17;0.50;;;0.60;87.70;;;;;;7925542;29;20057;-73
2021/01/29 13:19:45;;;;;;;3.45;1.20;;;0.60;90.80;;;;;;7902974;29;20054;-73
2021/01/29 13:23:47;;;;;;;1.85;0.82;;;0.70;88.60;;;;;;7927855;29;20075;-73
2021/01/29 13:28:14;;;;;;;3.58;1.13;;;0.70;88.90;;;;;;7919774;29;20081;-73
2021/01/29 13:32:34;;;;;;;2.40;0.77;;;0.60;91.50;;;;;;7916425;29;20103;-73
2021/01/29 13:36:37;;;;;;;3.33;1.02;;;0.70;90.70;;;;;;7908027;29;20075;-73
2021/01/29 13:40:40;;;;;;;2.97;1.10;;;0.70;90.70;;;;;;7931589;29;20050;-73
2021/01/29 13:44:46;;;;;;;2.58;1.00;;;0.70;91.90;;;;;;7912197;29;20070;-73
2021/01/29 13:48:47;;;;;;;2.40;0.90;;;0.80;92.10;;;;;;7900061;29;20055;-73
2021/01/29 13:52:55;;;;;;;3.03;0.50;;;0.70;91.60;;;;;;7925323;29;20456;-73
2021/01/29 13:57:21;;;;;;;6.57;1.25;;;0.70;91.20;;;;;;7925788;29;20493;-73
2021/01/29 14:01:35;;;;;;;1.55;0.68;;;0.80;92.30;;;;;;7939625;29;20051;-73
2021/01/29 14:05:37;;;;;;;2.55;1.42;;;0.80;91.60;;;;;;7930060;29;20047;-73
2021/01/29 14:09:39;;;;;;;2.45;0.90;;;0.80;91.70;;;;;;7923418;29;20510;-73
2021/01/29 14:13:57;;;;;;;2.03;1.00;;;0.80;92.60;;;;;;7922277;29;20373;-73
2021/01/29 14:18:07;;;;;;;1.83;0.93;;;0.80;92.50;;;;;;7926783;29;20143;-73
2021/01/29 14:22:20;;;;;;;1.80;0.90;;;0.80;91.80;;;;;;7932900;29;20112;-73
2021/01/29 14:26:39;;;;;;;1.70;0.57;;;0.80;92.60;;;;;;7916420;29;20047;-73
2021/01/29 14:30:54;;;;;;;3.00;1.30;;;0.80;92.40;;;;;;7911783;29;20063;-73
2021/01/29 14:35:08;;;;;;;13.32;2.38;;;0.80;92.80;;;;;;7917423;29;20116;-73
2021/01/29 14:39:16;;;;;;;8.98;2.03;;;-0.90;92.60;;;;;;7917057;29;20059;-73
2021/01/29 14:43:29;;;;;;;7.55;3.60;;;0.80;93.50;;;;;;7926007;29;20054;-73
2021/01/29 14:47:55;;;;;;;3.72;2.20;;;0.90;93.50;;;;;;7913844;29;20533;-74
2021/01/29 14:52:08;;;;;;;4.53;2.00;;;0.80;93.30;;;;;;7910040;29;20146;-73
2021/01/29 14:56:36;;;;;;;7.55;4.28;;;0.80;93.40;;;;;;7904379;29;20051;-73
2021/01/29 15:00:44;;;;;;;4.32;1.90;;;0.80;93.30;;;;;;7941957;29;20051;-74
2021/01/29 15:04:49;;;;;;;2.97;1.60;;;1.70;93.70;;;;;;7911237;29;20062;-73
2021/01/29 15:08:55;;;;;;;11.85;6.60;;;0.80;93.50;;;;;;7915965;29;20059;-73
2021/01/29 15:12:58;;;;;;;2.47;1.40;;;0.80;93.10;;;;;;7894659;29;20543;-73
2021/01/29 15:16:59;;;;;;;;;;;0.80;93.60;;;;;;7928057;29;20507;-72
2021/01/29 15:21:29;;;;;;;6.00;1.07;;;0.80;93.50;;;;;;7910728;29;20352;-73
2021/01/29 15:25:31;;;;;;;2.13;0.90;;;1.10;94.50;;;;;;7926205;29;20055;-73
2021/01/29 15:29:51;;;;;;;1.08;0.60;;;0.80;94.70;;;;;;7921524;29;20070;-72
2021/01/29 15:33:58;;;;;;;1.98;0.95;;;0.70;94.80;;;;;;7917381;29;20059;-73
2021/01/29 15:38:05;;;;;;;2.80;1.05;;;0.70;94.60;;;;;;7924920;29;20529;-73
2021/01/29 15:42:08;;;;;;;5.07;1.50;;;0.70;94.80;;;;;;7920828;29;20377;-73
2021/01/29 15:46:09;;;;;;;2.85;1.08;;;0.70;94.40;;;;;;7915030;29;20084;-73
2021/01/29 15:50:49;;;;;;;2.85;1.40;;;0.70;94.70;;;;;;7904429;29;20070;-73
2021/01/29 15:55:00;;;;;;;5.32;2.40;;;0.70;95.00;;;;;;7914857;29;20058;-73
2021/01/29 15:59:19;;;;;;;3.42;1.80;;;0.70;95.20;;;;;;7909484;29;20130;-73
2021/01/29 16:03:44;;;;;;;4.60;1.90;;;0.70;95.30;;;;;;7926627;29;21380;-73
2021/01/29 16:07:56;;;;;;;4.65;2.10;;;0.70;95.50;;;;;;7924360;29;20055;-73
2021/01/29 16:12:21;;;;;;;6.38;2.90;;;0.60;95.70;;;;;;7915826;29;20078;-73
2021/01/29 16:16:28;;;;;;;5.38;3.05;;;0.50;96.10;;;;;;7920171;29;20055;-73
2021/01/29 16:20:39;;;;;;;11.82;6.20;;;0.50;96.20;;;;;;7921143;29;20079;-74
2021/01/29 16:24:43;;;;;;;5.50;3.00;;;0.50;96.20;;;;;;7941077;29;20090;-73
2021/01/29 16:28:48;;;;;;;3.08;1.05;;;0.50;96.50;;;;;;7904319;29;20071;-73
2021/01/29 16:32:51;;;;;;;4.55;2.05;;;0.90;96.80;;;;;;7909717;29;20141;-73
2021/01/29 16:36:56;;;;;;;6.85;2.42;;;0.50;96.20;;;;;;7906291;29;20598;-74
2021/01/29 16:41:02;;;;;;;6.30;2.45;;;0.50;96.30;;;;;;7927209;29;20054;-74
2021/01/29 16:45:30;;;;;;;4.63;1.90;;;1.10;96.60;;;;;;7922977;29;20171;-73
2021/01/29 16:49:35;;;;;;;4.90;2.45;;;2.30;97.00;;;;;;7903563;29;20118;-74
2021/01/29 16:53:39;;;;;;;4.90;2.20;;;0.40;96.80;;;;;;7941645;29;20043;-73
2021/01/29 16:57:41;;;;;;;5.00;2.15;;;0.40;96.90;;;;;;7931253;29;20081;-73
2021/01/29 17:01:44;;;;;;;7.00;3.30;;;0.40;97.10;;;;;;7910697;29;20085;-73
2021/01/29 17:06:06;;;;;;;8.43;3.42;;;0.40;97.10;;;;;;7906691;29;20051;-73
2021/01/29 17:10:24;;;;;;;10.43;6.28;;;0.30;97.40;;;;;;7931161;29;20051;-72
2021/01/29 17:14:28;;;;;;;13.20;5.97;;;0.30;98.90;;;;;;7919351;29;20050;-73
2021/01/29 17:18:29;;;;;;;8.10;6.00;;;0.30;98.40;;;;;;7926190;29;20054;-71
2021/01/29 17:22:39;;;;;;;7.90;4.95;;;0.30;99.40;;;;;;7912583;29;20714;-72
2021/01/29 17:26:45;;;;;;;6.43;3.80;;;0.30;98.60;;;;;;7923067;29;20055;-72
2021/01/29 17:30:47;;;;;;;5.03;2.47;;;0.30;98.90;;;;;;7916969;29;20112;-72
2021/01/29 17:34:52;;;;;;;;;;;0.20;99.30;;;;;;7906805;29;20050;-72
2021/01/29 17:39:15;;;;;;;8.55;3.70;;;0.20;99.90;;;;;;7923062;29;19925;-72
2021/01/29 17:43:24;;;;;;;8.02;3.83;;;0.10;99.70;;;;;;7927411;29;20087;-73
2021/01/29 17:47:31;;;;;;;4.78;3.13;;;0.10;99.70;;;;;;7918721;29;20074;-73
2021/01/29 17:51:36;;;;;;;8.43;3.97;;;0.00;99.90;;;;;;7903448;29;20134;-73
2021/01/29 17:55:42;;;;;;;12.60;4.40;;;0.10;99.40;;;;;;7928063;29;20059;-73
2021/01/29 18:00:01;;;;;;;8.63;4.65;;;-0.80;98.80;;;;;;7911610;29;20112;-73
2021/01/29 18:04:08;;;;;;;9.13;3.70;;;0.10;99.40;;;;;;7892641;29;20515;-73
2021/01/29 18:08:09;;;;;;;8.07;4.88;;;0.00;99.90;;;;;;7922822;29;20153;-72
2021/01/29 18:12:20;;;;;;;7.90;4.93;;;1.30;99.90;;;;;;7929579;29;20418;-72
2021/01/29 18:16:22;;;;;;;5.10;3.13;;;-0.10;99.90;;;;;;7906734;29;20051;-73
2021/01/29 18:20:47;;;;;;;8.05;3.97;;;-0.20;99.90;;;;;;7908092;29;20104;-72
2021/01/29 18:24:50;;;;;;;8.70;5.72;;;-0.20;99.90;;;;;;7913937;29;20059;-72
2021/01/29 18:28:59;;;;;;;3.97;1.73;;;-0.20;99.90;;;;;;7921682;29;20062;-72
2021/01/29 18:33:02;;;;;;;9.27;4.97;;;-0.20;99.90;;;;;;7894238;29;20182;-72
2021/01/29 18:37:04;;;;;;;5.35;3.33;;;-0.30;99.90;;;;;;7944348;29;20373;-72
2021/01/29 18:41:08;;;;;;;6.20;3.83;;;-0.30;99.90;;;;;;7923964;29;20108;-72
2021/01/29 18:45:11;;;;;;;5.32;3.40;;;1.70;99.90;;;;;;7919025;29;20038;-72
2021/01/29 18:49:12;;;;;;;10.95;6.10;;;-0.40;99.90;;;;;;7916190;29;20421;-72
2021/01/29 18:53:16;;;;;;;5.70;3.90;;;-0.40;99.90;;;;;;7929757;29;20114;-72
2021/01/29 18:57:17;;;;;;;8.07;3.42;;;-0.40;99.90;;;;;;7940186;29;20510;-73
2021/01/29 19:01:20;;;;;;;5.18;3.17;;;-0.40;99.90;;;;;;7899098;29;20470;-73
2021/01/29 19:05:27;;;;;;;9.00;5.30;;;-0.50;99.90;;;;;;7924016;29;20566;-72
2021/01/29 19:09:28;;;;;;;4.75;3.17;;;-0.50;99.90;;;;;;7937970;29;20143;-72
2021/01/29 19:13:30;;;;;;;7.93;5.05;;;-0.50;99.90;;;;;;7930918;29;20134;-73
2021/01/29 19:17:35;;;;;;;7.55;2.47;;;-0.60;99.90;;;;;;7911390;29;20967;-73
2021/01/29 19:21:37;;;;;;;14.45;7.32;;;-0.60;99.90;;;;;;7905897;29;20045;-72
2021/01/29 19:25:39;;;;;;;15.23;7.05;;;-0.60;99.90;;;;;;7893602;29;20138;-73
2021/01/29 19:29:43;;;;;;;7.32;4.63;;;-0.70;99.90;;;;;;8317365;24;20334;-69
2021/01/29 19:33:45;;;;;;;11.63;7.97;;;-1.20;99.90;;;;;;7942702;29;20123;-68
2021/01/29 19:37:47;;;;;;;11.63;7.00;;;-0.60;99.90;;;;;;7885987;29;20069;-68
2021/01/29 19:41:49;;;;;;;4.03;2.65;;;-0.60;99.90;;;;;;7939203;29;20058;-70
2021/01/29 19:45:54;;;;;;;12.38;7.30;;;-0.60;99.90;;;;;;7953907;29;20046;-70
2021/01/29 19:49:55;;;;;;;8.13;4.93;;;-0.60;99.90;;;;;;7935659;29;20454;-68
2021/01/29 19:53:57;;;;;;;10.90;6.38;;;-0.60;99.90;;;;;;7957909;29;20054;-69
2021/01/29 19:58:01;;;;;;;7.70;4.63;;;-0.60;99.90;;;;;;7934655;29;20062;-69
2021/01/29 20:02:02;;;;;;;;;;;-0.60;99.90;;;;;;7944182;29;20168;-68
2021/01/29 20:06:05;;;;;;;4.10;2.43;;;-0.70;99.90;;;;;;7951154;29;19928;-68
2021/01/29 20:10:08;;;;;;;11.15;4.78;;;-0.70;99.90;;;;;;7942930;29;20058;-67
2021/01/29 20:14:09;;;;;;;38.35;16.77;;;-0.70;99.90;;;;;;7945304;29;20051;-67
2021/01/29 20:18:13;;;;;;;9.77;5.70;;;-0.70;99.70;;;;;;7944707;29;20062;-68
2021/01/29 20:22:14;;;;;;;15.18;9.75;;;-0.70;99.50;;;;;;7941645;29;20065;-68
2021/01/29 20:26:17;;;;;;;10.68;7.32;;;-0.70;99.30;;;;;;7950724;29;20080;-66
2021/01/29 20:30:23;;;;;;;12.35;8.32;;;-0.80;99.00;;;;;;7941806;29;20433;-67
2021/01/29 20:34:26;;;;;;;11.07;6.32;;;-0.80;98.80;;;;;;7942954;29;20448;-68
2021/01/29 20:38:27;;;;;;;9.95;6.68;;;-0.80;99.00;;;;;;7944516;29;20068;-66
2021/01/29 20:42:29;;;;;;;10.85;5.97;;;-0.80;99.00;;;;;;7956753;29;20063;-67
2021/01/29 20:46:30;;;;;;;12.03;7.10;;;-0.80;99.00;;;;;;7944761;29;20046;-68
2021/01/29 20:50:39;;;;;;;12.50;8.20;;;-0.90;99.00;;;;;;7946103;29;21034;-67
2021/01/29 20:54:41;;;;;;;12.63;7.60;;;-0.90;99.30;;;;;;7943267;29;20437;-68
2021/01/29 20:58:43;;;;;;;10.43;6.32;;;-0.90;99.20;;;;;;7935628;29;20052;-68
2021/01/29 21:02:48;;;;;;;11.70;6.22;;;-0.80;99.20;;;;;;7952415;29;20050;-66
2021/01/29 21:06:50;;;;;;;7.00;4.30;;;-0.80;99.00;;;;;;7943574;29;20085;-68
2021/01/29 21:10:54;;;;;;;6.97;4.35;;;-0.90;98.90;;;;;;7944541;29;20038;-68
2021/01/29 21:14:56;;;;;;;6.82;4.53;;;-0.80;98.90;;;;;;7942552;29;20462;-68
2021/01/29 21:18:58;;;;;;;6.23;3.90;;;-0.80;98.60;;;;;;7949174;29;20059;-66
2021/01/29 21:22:59;;;;;;;;;;;-1.60;98.40;;;;;;7956022;29;20497;-67
2021/01/29 21:27:01;;;;;;;5.47;3.37;;;-0.80;98.50;;;;;;7958096;29;20220;-68
2021/01/29 21:31:02;;;;;;;5.53;3.38;;;-0.70;98.50;;;;;;7957039;29;20155;-68
2021/01/29 21:35:07;;;;;;;7.03;3.40;;;-0.80;98.60;;;;;;7949946;29;20054;-67
2021/01/29 21:39:12;;;;;;;5.00;3.00;;;-0.70;98.50;;;;;;7960603;29;20049;-68
2021/01/29 21:43:14;;;;;;;2.78;1.85;;;-0.70;98.40;;;;;;7932163;29;21489;-68
2021/01/29 21:47:16;;;;;;;7.45;4.55;;;-0.80;98.30;;;;;;7946485;29;20609;-68
2021/01/29 21:51:20;;;;;;;6.38;3.75;;;-0.80;98.60;;;;;;7951111;29;20530;-69
2021/01/29 21:55:21;;;;;;;6.78;3.75;;;-0.80;98.80;;;;;;7958468;29;20120;-67
2021/01/29 21:59:23;;;;;;;5.05;2.63;;;-0.80;98.80;;;;;;7962364;29;20552;-68
2021/01/29 22:03:27;;;;;;;7.22;3.17;;;-0.80;99.00;;;;;;7949744;29;20058;-68
2021/01/29 22:07:28;;;;;;;6.30;4.22;;;-0.80;99.00;;;;;;7945961;29;20471;-68
2021/01/29 22:11:30;;;;;;;7.32;4.30;;;-0.70;99.20;;;;;;7950374;29;20736;-68
2021/01/29 22:15:33;;;;;;;6.45;4.10;;;-0.80;99.00;;;;;;7951909;29;21398;-67
2021/01/29 22:19:35;;;;;;;5.55;3.50;;;-0.70;98.80;;;;;;7942568;29;20046;-67